createdAt,value
2019-05-21T00:00:43.886Z,29.85
2019-05-21T00:03:12.417Z,25.93
2019-05-21T00:05:40.931Z,26.67
2019-05-21T00:08:09.464Z,21.53
2019-05-21T00:10:38.125Z,25.77
2019-05-21T00:13:06.561Z,21.30
2019-05-21T00:15:35.029Z,21.03
2019-05-21T00:18:03.746Z,20.87
2019-05-21T00:20:32.622Z,23.07
2019-05-21T00:23:01.065Z,24.82
2019-05-21T00:25:29.529Z,16.80
2019-05-21T00:28:01.034Z,19.97
2019-05-21T00:31:06.031Z,20.00
2019-05-21T00:34:11.207Z,26.83
2019-05-21T00:37:17.947Z,20.83
2019-05-21T00:40:22.896Z,26.17
2019-05-21T00:42:51.435Z,25.73
2019-05-21T00:45:19.930Z,23.57
2019-05-21T00:47:48.409Z,23.30
2019-05-21T00:50:17.034Z,26.80
2019-05-21T00:52:45.546Z,24.63
2019-05-21T00:55:14.813Z,26.45
2019-05-21T00:57:43.251Z,26.80
2019-05-21T01:00:12.247Z,23.87
2019-05-21T01:02:40.731Z,28.63
2019-05-21T01:05:09.337Z,27.62
2019-05-21T01:07:37.770Z,27.67
2019-05-21T01:10:06.700Z,27.77
2019-05-21T01:12:35.143Z,24.55
2019-05-21T01:15:05.826Z,22.47
2019-05-21T01:17:34.288Z,25.03
2019-05-21T01:20:02.726Z,23.30
2019-05-21T01:22:31.196Z,23.07
2019-05-21T01:24:59.664Z,25.10
2019-05-21T01:27:28.100Z,23.87
2019-05-21T01:29:56.565Z,22.27
2019-05-21T01:32:25.021Z,24.10
2019-05-21T01:34:53.534Z,22.95
2019-05-21T01:37:22.002Z,21.67
2019-05-21T01:39:50.806Z,21.73
2019-05-21T01:42:19.270Z,23.87
2019-05-21T01:44:47.702Z,22.97
2019-05-21T01:47:16.174Z,21.00
2019-05-21T01:49:44.602Z,19.53
2019-05-21T01:52:13.068Z,23.70
2019-05-21T01:54:41.534Z,22.57
2019-05-21T01:57:09.974Z,21.13
2019-05-21T01:59:38.431Z,22.53
2019-05-21T02:02:06.889Z,19.53
2019-05-21T02:04:35.354Z,22.87
2019-05-21T02:07:03.785Z,23.50
2019-05-21T02:09:33.894Z,22.10
2019-05-21T02:12:02.367Z,24.47
2019-05-21T02:14:30.830Z,20.93
2019-05-21T02:16:59.270Z,25.07
2019-05-21T02:19:27.747Z,23.87
2019-05-21T02:21:56.185Z,24.33
2019-05-21T02:24:24.642Z,25.17
2019-05-21T02:26:53.079Z,24.47
2019-05-21T02:29:21.602Z,24.13
2019-05-21T02:31:50.102Z,26.10
2019-05-21T02:34:18.583Z,21.43
2019-05-21T02:36:47.053Z,21.83
2019-05-21T02:39:15.482Z,24.30
2019-05-21T02:41:44.030Z,25.50
2019-05-21T02:44:12.497Z,25.53
2019-05-21T02:46:40.968Z,20.20
2019-05-21T02:49:09.427Z,21.37
2019-05-21T02:51:37.903Z,24.13
2019-05-21T02:54:06.479Z,22.67
2019-05-21T02:56:34.950Z,25.70
2019-05-21T02:59:03.383Z,25.47
2019-05-21T03:01:33.574Z,29.17
2019-05-21T03:04:02.102Z,27.90
2019-05-21T03:06:30.618Z,29.97
2019-05-21T03:08:59.153Z,30.00
2019-05-21T03:11:27.586Z,31.20
2019-05-21T03:13:56.125Z,31.10
2019-05-21T03:16:24.566Z,27.83
2019-05-21T03:18:53.019Z,34.23
2019-05-21T03:21:21.503Z,31.20
2019-05-21T03:23:50.006Z,30.60
2019-05-21T03:26:18.465Z,30.03
2019-05-21T03:28:46.955Z,32.37
2019-05-21T03:31:15.425Z,34.23
2019-05-21T03:33:43.935Z,34.40
2019-05-21T03:36:29.679Z,37.20
2019-05-21T03:38:42.715Z,37.77
2019-05-21T03:41:11.157Z,36.83
2019-05-21T03:43:39.620Z,34.63
2019-05-21T03:46:08.062Z,36.30
2019-05-21T03:48:36.594Z,37.23
2019-05-21T03:51:05.035Z,31.30
2019-05-21T03:53:33.498Z,39.07
2019-05-21T03:56:01.938Z,37.17
2019-05-21T03:58:30.403Z,41.17
2019-05-21T04:00:58.868Z,42.87
2019-05-21T04:03:27.447Z,40.70
2019-05-21T04:05:55.927Z,40.90
2019-05-21T04:08:24.426Z,39.43
2019-05-21T04:10:52.896Z,39.27
2019-05-21T04:13:21.354Z,37.83
2019-05-21T04:15:51.442Z,36.57
2019-05-21T04:18:21.538Z,35.90
2019-05-21T04:20:49.997Z,38.00
2019-05-21T04:23:18.440Z,35.53
2019-05-21T04:25:46.902Z,40.03
2019-05-21T04:28:15.343Z,39.70
2019-05-21T04:30:43.802Z,36.87
2019-05-21T04:33:12.240Z,41.97
2019-05-21T04:35:40.714Z,39.30
2019-05-21T04:38:09.150Z,39.63
2019-05-21T04:40:37.599Z,43.10
2019-05-21T04:43:06.058Z,42.23
2019-05-21T04:45:34.575Z,40.00
2019-05-21T04:48:03.033Z,42.17
2019-05-21T04:50:31.472Z,40.93
2019-05-21T04:52:59.944Z,44.93
2019-05-21T04:55:28.444Z,44.40
2019-05-21T04:57:56.918Z,42.93
2019-05-21T05:00:25.356Z,40.67
2019-05-21T05:02:53.804Z,42.87
2019-05-21T05:05:22.276Z,38.67
2019-05-21T05:07:50.715Z,43.27
2019-05-21T05:10:19.180Z,34.20
2019-05-21T05:12:47.637Z,40.97
2019-05-21T05:15:16.157Z,43.17
2019-05-21T05:17:44.621Z,35.00
2019-05-21T05:20:13.197Z,41.27
2019-05-21T05:22:41.670Z,39.90
2019-05-21T05:25:10.194Z,41.43
2019-05-21T05:27:38.642Z,44.60
2019-05-21T05:30:08.243Z,43.57
2019-05-21T05:32:36.788Z,43.27
2019-05-21T05:35:08.686Z,38.67
2019-05-21T05:37:44.031Z,43.30
2019-05-21T05:40:07.958Z,40.63
2019-05-21T05:42:36.551Z,37.20
2019-05-21T05:45:07.701Z,36.90
2019-05-21T05:47:36.325Z,38.63
2019-05-21T05:50:08.661Z,43.47
2019-05-21T05:52:37.418Z,35.90
2019-05-21T05:55:07.212Z,39.60
2019-05-21T05:57:35.678Z,29.07
2019-05-21T06:00:06.123Z,30.37
2019-05-21T06:02:34.607Z,37.43
2019-05-21T06:05:03.291Z,34.30
2019-05-21T06:07:31.759Z,34.60
2019-05-21T06:10:00.257Z,37.70
2019-05-21T06:12:28.766Z,35.40
2019-05-21T06:14:57.274Z,25.77
2019-05-21T06:17:25.712Z,34.10
2019-05-21T06:19:54.178Z,35.20
2019-05-21T06:22:22.614Z,33.90
2019-05-21T06:24:51.072Z,36.63
2019-05-21T06:27:19.542Z,37.83
2019-05-21T06:29:47.981Z,31.07
2019-05-21T06:32:16.437Z,36.83
2019-05-21T06:34:44.882Z,33.13
2019-05-21T06:37:13.355Z,34.10
2019-05-21T06:39:41.791Z,33.83
2019-05-21T06:42:10.347Z,32.00
2019-05-21T06:44:38.777Z,36.30
2019-05-21T06:47:07.213Z,33.00
2019-05-21T06:49:35.672Z,35.67
2019-05-21T06:52:04.214Z,29.93
2019-05-21T06:54:32.690Z,32.80
2019-05-21T06:57:01.118Z,30.10
2019-05-21T06:59:29.574Z,32.77
2019-05-21T07:01:58.052Z,33.57
2019-05-21T07:04:26.497Z,33.13
2019-05-21T07:06:54.937Z,31.13
2019-05-21T07:09:23.402Z,31.80
2019-05-21T07:11:51.868Z,29.03
2019-05-21T07:14:20.297Z,32.77
2019-05-21T07:16:48.766Z,27.37
2019-05-21T07:19:17.238Z,34.47
2019-05-21T07:21:45.678Z,33.90
2019-05-21T07:24:14.147Z,33.43
2019-05-21T07:26:42.710Z,29.67
2019-05-21T07:29:11.265Z,31.23
2019-05-21T07:31:39.856Z,34.13
2019-05-21T07:34:08.326Z,31.93
2019-05-21T07:36:36.786Z,30.93
2019-05-21T07:39:07.292Z,30.30
2019-05-21T07:41:35.767Z,19.97
2019-05-21T07:44:04.299Z,28.73
2019-05-21T07:46:32.835Z,30.40
2019-05-21T07:49:01.262Z,22.70
2019-05-21T07:51:29.726Z,25.17
2019-05-21T07:53:58.165Z,25.43
2019-05-21T07:56:26.640Z,25.13
2019-05-21T07:58:55.078Z,24.03
2019-05-21T08:01:23.548Z,25.70
2019-05-21T08:03:51.983Z,22.43
2019-05-21T08:06:20.450Z,24.63
2019-05-21T08:08:48.955Z,22.70
2019-05-21T08:11:17.414Z,20.70
2019-05-21T08:13:45.854Z,19.37
2019-05-21T08:16:14.317Z,24.63
2019-05-21T08:18:42.750Z,20.17
2019-05-21T08:21:11.193Z,15.70
2019-05-21T08:23:39.660Z,15.90
2019-05-21T08:26:08.100Z,15.53
2019-05-21T08:28:36.567Z,10.10
2019-05-21T08:31:05.006Z,13.37
2019-05-21T08:33:33.482Z,13.97
2019-05-21T08:36:02.097Z,13.47
2019-05-21T08:38:30.736Z,12.10
2019-05-21T08:40:59.176Z,12.60
2019-05-21T08:43:27.811Z,12.67
2019-05-21T08:45:56.273Z,12.87
2019-05-21T08:48:24.743Z,9.47
2019-05-21T08:50:53.201Z,11.27
2019-05-21T08:53:21.637Z,11.20
2019-05-21T08:55:50.109Z,9.53
2019-05-21T08:58:18.671Z,11.47
2019-05-21T09:00:47.154Z,12.43
2019-05-21T09:03:15.621Z,12.17
2019-05-21T09:05:44.055Z,13.27
2019-05-21T09:08:12.523Z,12.27
2019-05-21T09:10:42.357Z,13.43
2019-05-21T09:13:10.821Z,12.93
2019-05-21T09:15:39.670Z,14.83
2019-05-21T09:18:08.142Z,12.90
2019-05-21T09:20:36.614Z,14.10
2019-05-21T09:23:05.201Z,12.87
2019-05-21T09:25:33.639Z,14.47
2019-05-21T09:28:02.103Z,12.67
2019-05-21T09:30:30.557Z,15.00
2019-05-21T09:32:59.087Z,14.65
2019-05-21T09:35:27.530Z,14.53
2019-05-21T09:37:55.987Z,14.95
2019-05-21T09:40:26.167Z,14.20
2019-05-21T09:42:54.599Z,11.88
2019-05-21T09:45:23.133Z,13.35
2019-05-21T09:47:51.627Z,14.35
2019-05-21T09:50:20.307Z,15.13
2019-05-21T09:52:48.842Z,15.15
2019-05-21T09:55:17.554Z,15.00
2019-05-21T09:57:47.798Z,13.60
2019-05-21T10:00:18.382Z,12.35
2019-05-21T10:02:47.419Z,14.47
2019-05-21T10:05:16.391Z,13.83
2019-05-21T10:07:44.912Z,12.75
2019-05-21T10:10:13.378Z,14.45
2019-05-21T10:12:41.842Z,14.78
2019-05-21T10:15:10.291Z,13.25
2019-05-21T10:17:38.767Z,12.73
2019-05-21T10:20:07.744Z,12.20
2019-05-21T10:22:36.269Z,13.93
2019-05-21T10:25:06.265Z,14.73
2019-05-21T10:27:34.732Z,15.13
2019-05-21T10:30:04.266Z,14.65
2019-05-21T10:32:32.714Z,14.20
2019-05-21T10:35:01.158Z,13.57
2019-05-21T10:37:30.635Z,13.87
2019-05-21T10:39:59.238Z,13.90
2019-05-21T10:42:27.680Z,16.25
2019-05-21T10:44:56.157Z,14.10
2019-05-21T10:47:24.677Z,13.83
2019-05-21T10:49:53.198Z,14.35
2019-05-21T10:52:21.636Z,12.10
2019-05-21T10:54:50.102Z,13.85
2019-05-21T10:57:18.606Z,11.60
2019-05-21T10:59:47.103Z,13.18
2019-05-21T11:02:17.369Z,13.90
2019-05-21T11:04:47.452Z,14.20
2019-05-21T11:07:17.221Z,12.37
2019-05-21T11:09:45.702Z,13.07
2019-05-21T11:12:14.352Z,13.95
2019-05-21T11:14:42.814Z,13.87
2019-05-21T11:17:11.987Z,6.13
2019-05-21T11:19:40.783Z,13.93
2019-05-21T11:22:09.245Z,7.30
2019-05-21T11:24:37.705Z,10.47
2019-05-21T11:27:06.311Z,10.67
2019-05-21T11:29:34.745Z,9.63
2019-05-21T11:32:03.206Z,9.43
2019-05-21T11:34:31.741Z,12.40
2019-05-21T11:37:00.350Z,12.83
2019-05-21T11:39:28.883Z,11.13
2019-05-21T11:41:57.321Z,11.17
2019-05-21T11:44:26.042Z,11.10
2019-05-21T11:46:54.487Z,11.00
2019-05-21T11:49:22.937Z,10.10
2019-05-21T11:51:51.370Z,9.50
2019-05-21T11:54:19.900Z,8.37
2019-05-21T11:56:48.333Z,5.57
2019-05-21T11:59:16.878Z,11.43
2019-05-21T12:01:45.432Z,12.83
2019-05-21T12:04:13.967Z,12.20
2019-05-21T12:06:42.502Z,11.60
2019-05-21T12:09:11.021Z,13.00
2019-05-21T12:11:39.472Z,11.20
2019-05-21T12:14:07.950Z,11.27
2019-05-21T12:16:36.482Z,9.57
2019-05-21T12:19:07.935Z,9.00
2019-05-21T12:21:35.249Z,11.30
2019-05-21T12:24:03.798Z,11.90
2019-05-21T12:26:32.301Z,11.27
2019-05-21T12:29:00.792Z,9.93
2019-05-21T12:31:29.292Z,11.23
2019-05-21T12:33:57.726Z,8.53
2019-05-21T12:36:26.654Z,8.67
2019-05-21T12:38:55.149Z,9.17
2019-05-21T12:41:23.620Z,10.33
2019-05-21T12:43:52.090Z,9.00
2019-05-21T12:46:20.526Z,10.37
2019-05-21T12:48:48.963Z,6.33
2019-05-21T12:51:17.498Z,9.70
2019-05-21T12:53:45.992Z,6.97
2019-05-21T12:56:14.422Z,6.93
2019-05-21T12:58:42.865Z,9.67
2019-05-21T13:01:11.345Z,10.70
2019-05-21T13:03:39.806Z,8.80
2019-05-21T13:06:08.310Z,8.70
2019-05-21T13:08:36.753Z,8.30
2019-05-21T13:11:05.567Z,8.97
2019-05-21T13:13:34.967Z,10.60
2019-05-21T13:16:03.407Z,10.33
2019-05-21T13:18:31.860Z,9.80
2019-05-21T13:21:00.372Z,10.30
2019-05-21T13:23:28.845Z,9.83
2019-05-21T13:25:57.371Z,11.50
2019-05-21T13:28:25.867Z,12.13
2019-05-21T13:30:54.358Z,14.13
2019-05-21T13:33:22.876Z,10.00
2019-05-21T13:35:51.346Z,12.13
2019-05-21T13:38:19.776Z,12.73
2019-05-21T13:40:48.543Z,17.87
2019-05-21T13:43:20.541Z,18.33
2019-05-21T13:45:47.266Z,18.70
2019-05-21T13:48:15.702Z,17.03
2019-05-21T13:50:44.165Z,20.10
2019-05-21T13:53:12.598Z,8.90
2019-05-21T13:55:41.069Z,20.30
2019-05-21T13:58:09.592Z,20.40
2019-05-21T14:00:45.660Z,20.07
2019-05-21T14:03:14.172Z,20.17
2019-05-21T14:05:42.823Z,17.53
2019-05-21T14:08:11.290Z,18.30
2019-05-21T14:10:39.807Z,18.73
2019-05-21T14:13:08.399Z,18.97
2019-05-21T14:15:36.941Z,19.50
2019-05-21T14:18:05.420Z,18.90
2019-05-21T14:20:33.935Z,18.73
2019-05-21T14:23:02.430Z,18.90
2019-05-21T14:25:31.144Z,18.00
2019-05-21T14:27:59.666Z,18.45
2019-05-21T14:30:28.255Z,16.13
2019-05-21T14:32:56.793Z,15.70
2019-05-21T14:35:25.261Z,15.10
2019-05-21T14:37:53.733Z,13.15
2019-05-21T14:40:31.635Z,16.42
2019-05-21T14:42:59.787Z,14.87
2019-05-21T14:45:29.758Z,14.85
2019-05-21T14:47:55.421Z,14.47
2019-05-21T14:50:23.863Z,16.00
2019-05-21T14:52:52.537Z,11.43
2019-05-21T14:55:21.053Z,15.60
2019-05-21T14:57:49.489Z,14.83
2019-05-21T15:00:37.935Z,15.48
2019-05-21T15:03:06.466Z,12.28
2019-05-21T15:05:35.864Z,11.97
2019-05-21T15:08:05.457Z,14.80
2019-05-21T15:10:47.376Z,13.53
2019-05-21T15:13:06.047Z,9.13
2019-05-21T15:15:35.328Z,10.93
2019-05-21T15:18:03.946Z,11.43
2019-05-21T15:20:52.211Z,9.70
2019-05-21T15:23:20.678Z,10.58
2019-05-21T15:25:49.178Z,11.88
2019-05-21T15:28:17.649Z,11.60
2019-05-21T15:30:46.084Z,7.12
2019-05-21T15:33:14.618Z,10.18
2019-05-21T15:35:43.082Z,8.68
2019-05-21T15:38:11.668Z,10.60
2019-05-21T15:40:40.121Z,10.70
2019-05-21T15:43:08.595Z,9.33
2019-05-21T15:45:37.098Z,11.57
2019-05-21T15:48:05.834Z,11.15
2019-05-21T15:50:34.347Z,11.18
2019-05-21T15:53:02.834Z,11.08
2019-05-21T15:55:31.366Z,10.03
2019-05-21T15:57:59.810Z,10.50
2019-05-21T16:00:28.649Z,10.55
2019-05-21T16:02:57.142Z,12.25
2019-05-21T16:05:25.622Z,11.75
2019-05-21T16:07:54.090Z,12.03
2019-05-21T16:10:22.535Z,12.15
2019-05-21T16:12:54.052Z,12.60
2019-05-21T16:15:21.247Z,12.90
2019-05-21T16:17:49.714Z,13.58
2019-05-21T16:20:18.294Z,13.38
2019-05-21T16:22:46.760Z,12.35
2019-05-21T16:25:15.335Z,15.15
2019-05-21T16:27:43.858Z,11.85
2019-05-21T16:30:12.751Z,13.40
2019-05-21T16:32:41.307Z,10.00
2019-05-21T16:35:10.597Z,12.23
2019-05-21T16:37:39.139Z,12.20
2019-05-21T16:40:08.426Z,10.13
2019-05-21T16:42:36.885Z,6.15
2019-05-21T16:45:07.823Z,10.08
2019-05-21T16:47:45.499Z,5.97
2019-05-21T16:50:07.741Z,9.40
2019-05-21T16:52:36.417Z,8.55
2019-05-21T16:55:06.385Z,9.25
2019-05-21T16:57:34.847Z,9.55
2019-05-21T17:00:05.323Z,8.85
2019-05-21T17:02:33.797Z,9.10
2019-05-21T17:05:02.602Z,9.40
2019-05-21T17:07:31.069Z,8.23
2019-05-21T17:09:59.522Z,9.03
2019-05-21T17:12:28.023Z,9.05
2019-05-21T17:14:56.507Z,9.65
2019-05-21T17:17:24.968Z,8.78
2019-05-21T17:19:53.425Z,8.03
2019-05-21T17:22:21.942Z,8.48
2019-05-21T17:24:50.389Z,8.05
2019-05-21T17:27:18.858Z,8.53
2019-05-21T17:29:47.301Z,8.05
2019-05-21T17:32:15.753Z,8.53
2019-05-21T17:34:44.290Z,7.55
2019-05-21T17:37:12.734Z,6.80
2019-05-21T17:39:41.210Z,7.00
2019-05-21T17:42:15.656Z,6.80
2019-05-21T17:44:40.463Z,7.75
2019-05-21T17:47:08.994Z,7.22
2019-05-21T17:49:37.454Z,7.00
2019-05-21T17:52:06.026Z,6.47
2019-05-21T17:54:34.496Z,7.10
2019-05-21T17:57:02.967Z,6.70
2019-05-21T17:59:31.472Z,6.53
2019-05-21T18:02:01.651Z,6.03
2019-05-21T18:04:30.842Z,6.78
2019-05-21T18:07:00.122Z,7.20
2019-05-21T18:09:29.190Z,6.65
2019-05-21T18:11:57.903Z,7.20
2019-05-21T18:14:26.357Z,6.95
2019-05-21T18:16:54.863Z,7.00
2019-05-21T18:19:23.343Z,7.10
2019-05-21T18:21:51.791Z,7.75
2019-05-21T18:24:20.340Z,7.70
2019-05-21T18:26:48.814Z,9.00
2019-05-21T18:29:17.254Z,11.22
2019-05-21T18:31:46.422Z,12.03
2019-05-21T18:34:15.227Z,12.82
2019-05-21T18:36:43.971Z,12.43
2019-05-21T18:39:12.578Z,13.43
2019-05-21T18:41:41.083Z,9.03
2019-05-21T18:44:09.565Z,13.62
2019-05-21T18:46:38.062Z,14.95
2019-05-21T18:49:06.519Z,8.23
2019-05-21T18:51:34.958Z,14.53
2019-05-21T18:54:03.511Z,12.05
2019-05-21T18:56:32.043Z,12.58
2019-05-21T18:59:00.774Z,14.03
2019-05-21T19:01:29.277Z,16.05
2019-05-21T19:03:57.822Z,16.42
2019-05-21T19:06:26.397Z,16.05
2019-05-21T19:08:54.840Z,15.38
2019-05-21T19:11:23.311Z,16.10
2019-05-21T19:13:51.895Z,15.60
2019-05-21T19:16:20.436Z,16.12
2019-05-21T19:18:49.009Z,17.20
2019-05-21T19:21:17.542Z,17.55
2019-05-21T19:23:46.057Z,16.48
2019-05-21T19:26:14.507Z,18.15
2019-05-21T19:28:43.011Z,16.65
2019-05-21T19:31:11.567Z,15.00
2019-05-21T19:33:39.994Z,17.98
2019-05-21T19:36:08.431Z,17.48
2019-05-21T19:38:37.362Z,17.35
2019-05-21T19:41:06.092Z,15.85
2019-05-21T19:43:34.534Z,15.03
2019-05-21T19:46:03.101Z,16.65
2019-05-21T19:48:31.687Z,15.48
2019-05-21T19:51:00.543Z,16.95
2019-05-21T19:53:29.243Z,13.68
2019-05-21T19:55:57.855Z,17.55
2019-05-21T19:58:26.339Z,16.37
2019-05-21T20:00:55.367Z,16.95
2019-05-21T20:03:23.866Z,16.80
2019-05-21T20:05:52.767Z,19.10
2019-05-21T20:08:21.208Z,18.62
2019-05-21T20:10:50.014Z,18.15
2019-05-21T20:13:31.852Z,18.20
2019-05-21T20:15:49.180Z,18.75
2019-05-21T20:18:18.015Z,16.33
2019-05-21T20:20:47.398Z,17.10
2019-05-21T20:23:17.774Z,17.50
2019-05-21T20:25:56.125Z,17.15
2019-05-21T20:28:17.185Z,18.80
2019-05-21T20:30:46.559Z,15.15
2019-05-21T20:33:14.990Z,16.45
2019-05-21T20:35:44.320Z,17.70
2019-05-21T20:38:12.925Z,17.73
2019-05-21T20:40:41.738Z,18.32
2019-05-21T20:43:10.784Z,19.12
2019-05-21T20:45:41.434Z,16.80
2019-05-21T20:48:11.080Z,20.67
2019-05-21T20:50:40.166Z,20.27
2019-05-21T20:53:08.829Z,18.65
2019-05-21T20:55:37.379Z,20.10
2019-05-21T20:58:08.225Z,19.25
2019-05-21T21:00:38.442Z,13.00
2019-05-21T21:03:09.718Z,20.70
2019-05-21T21:05:39.208Z,19.13
2019-05-21T21:08:08.455Z,20.63
2019-05-21T21:10:37.980Z,20.80
2019-05-21T21:13:08.409Z,19.97
2019-05-21T21:15:37.288Z,21.47
2019-05-21T21:18:05.987Z,22.55
2019-05-21T21:20:35.148Z,23.42
2019-05-21T21:23:03.842Z,22.40
2019-05-21T21:25:32.393Z,23.13
2019-05-21T21:28:01.277Z,23.20
2019-05-21T21:30:29.859Z,22.40
2019-05-21T21:32:59.994Z,21.25
2019-05-21T21:35:28.496Z,22.50
2019-05-21T21:37:57.040Z,21.37
2019-05-21T21:40:26.115Z,22.33
2019-05-21T21:42:54.856Z,22.93
2019-05-21T21:45:23.388Z,22.10
2019-05-21T21:47:52.230Z,20.80
2019-05-21T21:50:21.565Z,25.72
2019-05-21T21:52:50.350Z,20.57
2019-05-21T21:55:18.907Z,23.53
2019-05-21T21:57:47.341Z,22.83
2019-05-21T22:00:28.015Z,22.33
2019-05-21T22:02:59.714Z,23.00
2019-05-21T22:05:28.428Z,23.47
2019-05-21T22:07:57.044Z,23.17
2019-05-21T22:10:25.555Z,24.67
2019-05-21T22:12:54.022Z,23.90
2019-05-21T22:15:22.535Z,23.67
2019-05-21T22:17:51.166Z,24.73
2019-05-21T22:20:19.605Z,23.10
2019-05-21T22:22:48.073Z,23.43
2019-05-21T22:25:16.669Z,21.27
2019-05-21T22:27:45.111Z,23.40
2019-05-21T22:30:14.268Z,23.70
2019-05-21T22:32:42.738Z,25.67
2019-05-21T22:35:11.516Z,24.40
2019-05-21T22:37:40.153Z,24.67
2019-05-21T22:40:08.958Z,24.27
2019-05-21T22:42:37.475Z,22.67
2019-05-21T22:45:09.130Z,23.33
2019-05-21T22:47:37.900Z,24.90
2019-05-21T22:50:09.534Z,28.23
2019-05-21T22:52:38.067Z,24.93
2019-05-21T22:55:07.839Z,26.03
2019-05-21T22:57:36.308Z,24.97
2019-05-21T23:00:06.855Z,27.67
2019-05-21T23:02:37.003Z,25.97
2019-05-21T23:05:07.149Z,26.63
2019-05-21T23:07:35.759Z,25.70
2019-05-21T23:10:10.150Z,26.23
2019-05-21T23:12:40.090Z,24.67
2019-05-21T23:15:24.433Z,25.97
2019-05-21T23:17:42.897Z,25.70
2019-05-21T23:20:13.478Z,23.63
2019-05-21T23:22:44.935Z,22.60
2019-05-21T23:25:14.417Z,24.10
2019-05-21T23:27:43.373Z,23.63
2019-05-21T23:30:14.746Z,22.03
2019-05-21T23:32:43.954Z,23.97
2019-05-21T23:35:14.339Z,19.83
2019-05-21T23:37:46.577Z,24.47
2019-05-21T23:40:15.600Z,22.43
2019-05-21T23:42:44.151Z,22.27
2019-05-21T23:45:14.799Z,18.33
2019-05-21T23:47:43.274Z,21.40
2019-05-21T23:50:14.254Z,21.27
2019-05-21T23:52:43.094Z,12.37
2019-05-21T23:55:12.293Z,20.77
2019-05-21T23:57:42.083Z,22.17
